Time;durP1;ratioP1;P1;durP2;ratioP2;P2;SDS_P1;SDS_P2;PMS_P1;PMS_P2;Temp;Humidity;BMP_temperature;BMP_pressure;BME280_temperature;BME280_humidity;BME280_pressure;Samples;Min_cycle;Max_cycle;Signal;HPM_P1;HPM_P2
2022/05/31 00:01:37;;;;;;;8.50;1.70;;;;;;;20.05;nan;100963.44;5057177;28;20562;-84
2022/05/31 00:04:06;;;;;;;14.73;1.97;;;;;;;20.05;nan;100962.59;5045957;28;20443;-84
2022/05/31 00:06:35;;;;;;;8.00;1.93;;;;;;;20.04;nan;100961.75;5055934;28;20465;-84
2022/05/31 00:09:03;;;;;;;8.40;1.60;;;;;;;20.00;nan;100961.44;5063942;28;20451;-84
2022/05/31 00:11:32;;;;;;;10.50;1.80;;;;;;;20.00;nan;100955.91;5017851;28;20455;-84
2022/05/31 00:14:00;;;;;;;8.93;2.13;;;;;;;19.97;nan;100950.84;5069487;28;20462;-84
2022/05/31 00:16:27;;;;;;;11.73;2.07;;;;;;;19.98;nan;100935.03;5069419;28;20433;-83
2022/05/31 00:18:55;;;;;;;9.10;2.10;;;;;;;19.97;nan;100936.13;5020667;28;20484;-84
2022/05/31 00:21:31;;;;;;;6.60;1.50;;;;;;;19.97;nan;100944.44;5038893;28;20480;-84
2022/05/31 00:23:59;;;;;;;6.70;1.40;;;;;;;19.92;nan;100925.78;5053803;28;20435;-84
2022/05/31 00:26:26;;;;;;;4.70;1.50;;;;;;;19.96;nan;100928.91;5052986;28;20451;-85
2022/05/31 00:28:54;;;;;;;8.50;1.93;;;;;;;19.93;nan;100941.34;5036543;28;20454;-84
2022/05/31 00:31:22;;;;;;;6.70;1.80;;;;;;;19.87;nan;100928.44;5032776;28;20517;-85
2022/05/31 00:33:50;;;;;;;12.57;2.07;;;;;;;19.88;nan;100930.13;5049365;28;20459;-84
2022/05/31 00:36:19;;;;;;;10.23;2.53;;;;;;;19.88;nan;100923.75;5034384;28;20454;-84
2022/05/31 00:38:47;;;;;;;6.13;1.50;;;;;;;19.83;nan;100913.41;5050120;28;20461;-84
2022/05/31 00:41:26;;;;;;;5.77;1.53;;;;;;;19.87;nan;100927.63;5049585;28;20498;-84
2022/05/31 00:44:00;;;;;;;4.37;1.70;;;;;;;19.83;nan;100913.41;5055207;28;20470;-85
2022/05/31 00:46:34;;;;;;;7.03;1.70;;;;;;;19.80;nan;100926.94;5032586;28;20460;-84
2022/05/31 00:49:04;;;;;;;9.30;2.10;;;;;;;19.78;nan;100924.44;5031986;28;20443;-83
2022/05/31 00:51:53;;;;;;;9.50;1.83;;;;;;;19.80;nan;100916.69;5031340;28;20509;-84
2022/05/31 00:54:22;;;;;;;12.87;1.90;;;;;;;19.77;nan;100914.41;5052282;28;20504;-85
2022/05/31 00:56:50;;;;;;;6.37;1.97;;;;;;;19.76;nan;100915.50;5036040;28;20802;-85
2022/05/31 00:59:37;;;;;;;5.70;2.10;;;;;;;19.76;nan;100917.44;5019901;28;20454;-85
2022/05/31 01:02:05;;;;;;;3.77;1.57;;;;;;;19.71;nan;100918.19;5037513;28;21037;-84
2022/05/31 01:04:51;;;;;;;8.57;1.97;;;;;;;19.69;nan;100903.72;5037460;28;20460;-84
2022/05/31 01:07:18;;;;;;;7.03;1.60;;;;;;;19.67;nan;100900.34;5059874;28;20480;-84
2022/05/31 01:09:46;;;;;;;5.67;1.70;;;;;;;19.64;nan;100895.31;5052425;28;20455;-85
2022/05/31 01:12:14;;;;;;;5.03;1.60;;;;;;;19.66;nan;100904.22;5050476;28;20488;-85
2022/05/31 01:14:42;;;;;;;7.27;1.73;;;;;;;19.64;nan;100895.31;5052380;28;20474;-85
2022/05/31 01:17:30;;;;;;;6.90;1.90;;;;;;;19.65;nan;100881.19;5025692;28;20450;-84
2022/05/31 01:20:00;;;;;;;9.90;1.73;;;;;;;19.63;nan;100875.06;5016070;28;20448;-84
2022/05/31 01:22:36;;;;;;;13.67;1.80;;;;;;;19.63;nan;100874.22;5023296;28;20816;-84
2022/05/31 01:25:22;;;;;;;7.23;2.03;;;;;;;19.62;nan;100872.56;5048457;28;20470;-85
2022/05/31 01:28:05;;;;;;;8.90;1.70;;;;;;;19.60;nan;100866.41;5051909;28;20940;-84
2022/05/31 01:30:36;;;;;;;7.93;1.40;;;;;;;19.54;nan;100859.09;5036914;28;20454;-84
2022/05/31 01:33:13;;;;;;;7.63;1.77;;;;;;;19.56;nan;100859.69;5033795;28;20454;-83
2022/05/31 01:35:41;;;;;;;5.07;1.50;;;;;;;19.58;nan;100868.59;5034909;28;20442;-84
2022/05/31 01:38:15;;;;;;;7.53;1.23;;;;;;;19.55;nan;100864.38;5035157;28;20454;-84
2022/05/31 01:40:49;;;;;;;9.43;1.57;;;;;;;19.54;nan;100861.88;5035273;28;20458;-84
2022/05/31 01:43:17;;;;;;;17.60;3.13;;;;;;;19.52;nan;100855.72;5052286;28;20996;-85
2022/05/31 01:45:51;;;;;;;11.57;1.90;;;;;;;19.43;nan;100855.28;5035399;28;20959;-85
2022/05/31 01:48:19;;;;;;;8.63;1.80;;;;;;;19.45;nan;100858.63;5051139;28;20795;-84
2022/05/31 01:50:47;;;;;;;9.13;1.60;;;;;;;19.46;nan;100854.75;5035751;28;20944;-84
2022/05/31 01:53:16;;;;;;;8.40;1.73;;;;;;;19.48;nan;100854.50;5033132;28;20462;-85
2022/05/31 01:55:44;;;;;;;7.50;1.40;;;;;;;19.46;nan;100851.97;5051787;28;20450;-84
2022/05/31 01:58:24;;;;;;;8.47;1.60;;;;;;;19.42;nan;100853.59;5018800;28;20456;-85
2022/05/31 02:00:52;;;;;;;8.20;1.63;;;;;;;19.43;nan;100843.34;5084165;28;20430;-84
2022/05/31 02:03:20;;;;;;;5.83;1.50;;;;;;;19.41;nan;100845.53;5071247;28;20482;-84
2022/05/31 02:05:51;;;;;;;14.43;2.70;;;;;;;19.38;nan;100849.63;5039572;28;20447;-84
2022/05/31 02:08:20;;;;;;;12.73;2.40;;;;;;;19.34;nan;100845.66;5020115;28;20485;-84
2022/05/31 02:10:48;;;;;;;6.10;1.77;;;;;;;19.35;nan;100852.91;5052075;28;20953;-85
2022/05/31 02:13:16;;;;;;;8.67;1.80;;;;;;;19.32;nan;100843.16;5051936;28;20459;-84
2022/05/31 02:15:45;;;;;;;9.10;2.13;;;;;;;19.33;nan;100838.44;5068488;28;20520;-84
2022/05/31 02:18:12;;;;;;;5.57;1.50;;;;;;;19.33;nan;100841.22;5019157;28;20459;-84
2022/05/31 02:20:40;;;;;;;8.20;2.00;;;;;;;19.30;nan;100827.84;5035509;28;20489;-85
2022/05/31 02:23:07;;;;;;;9.30;1.50;;;;;;;19.30;nan;100827.84;5037114;28;20600;-83
2022/05/31 02:25:35;;;;;;;5.60;1.60;;;;;;;19.29;nan;100827.00;5055647;28;20484;-84
2022/05/31 02:28:02;;;;;;;12.10;1.57;;;;;;;19.29;nan;100827.00;5038874;28;20454;-84
2022/05/31 02:30:30;;;;;;;6.30;1.60;;;;;;;19.28;nan;100830.88;5055438;28;20449;-84
2022/05/31 02:32:58;;;;;;;5.43;1.63;;;;;;;19.27;nan;100829.19;5038340;28;20481;-84
2022/05/31 02:35:25;;;;;;;9.07;1.50;;;;;;;19.24;nan;100828.88;5035209;28;20451;-84
2022/05/31 02:37:55;;;;;;;8.40;1.77;;;;;;;19.20;nan;100828.53;5054857;28;20515;-84
2022/05/31 02:40:23;;;;;;;11.60;1.40;;;;;;;19.21;nan;100826.59;5053230;28;20469;-83
2022/05/31 02:42:50;;;;;;;9.53;1.40;;;;;;;19.20;nan;100834.06;5017414;28;20532;-84
2022/05/31 02:45:18;;;;;;;7.93;1.90;;;;;;;19.17;nan;100825.41;5018971;28;20445;-83
2022/05/31 02:47:47;;;;;;;11.23;1.63;;;;;;;19.12;nan;100826.13;5065989;28;20468;-84
2022/05/31 02:50:14;;;;;;;12.57;2.10;;;;;;;19.12;nan;100820.59;5055184;28;20454;-83
2022/05/31 02:52:42;;;;;;;9.53;2.10;;;;;;;19.09;nan;100821.09;5055878;28;21057;-84
2022/05/31 02:55:10;;;;;;;11.37;1.70;;;;;;;19.08;nan;100813.88;5018666;28;20455;-84
2022/05/31 02:57:38;;;;;;;6.47;1.60;;;;;;;19.01;nan;100813.19;5034676;28;20520;-84
2022/05/31 03:00:06;;;;;;;4.33;1.33;;;;;;;19.03;nan;100822.09;5051065;28;20937;-84
2022/05/31 03:02:37;;;;;;;6.53;1.60;;;;;;;19.01;nan;100817.91;5050903;28;20532;-84
2022/05/31 03:05:08;;;;;;;7.87;2.63;;;;;;;19.02;nan;100836.19;5036036;28;20459;-84
2022/05/31 03:07:35;;;;;;;5.00;1.50;;;;;;;19.00;nan;100824.53;5054150;28;20873;-83
2022/05/31 03:10:03;;;;;;;7.13;1.87;;;;;;;19.02;nan;100830.66;5054563;28;20450;-84
2022/05/31 03:12:31;;;;;;;9.27;1.77;;;;;;;18.99;nan;100832.00;5036202;28;20476;-84
2022/05/31 03:15:04;;;;;;;9.40;1.73;;;;;;;19.00;nan;100833.66;5037135;28;21013;-85
2022/05/31 03:17:36;;;;;;;6.90;1.57;;;;;;;18.97;nan;100834.16;5054503;28;20450;-84
2022/05/31 03:20:06;;;;;;;8.17;2.10;;;;;;;18.94;nan;100829.94;5054408;28;20450;-84
2022/05/31 03:22:44;;;;;;;9.13;2.13;;;;;;;18.83;nan;100833.63;5019154;28;20493;-84
2022/05/31 03:25:17;;;;;;;9.00;2.00;;;;;;;18.85;nan;100836.16;5034723;28;20967;-83
2022/05/31 03:27:45;;;;;;;6.60;2.00;;;;;;;18.86;nan;100843.34;5038153;28;20442;-84
2022/05/31 03:30:13;;;;;;;9.13;1.97;;;;;;;18.83;nan;100843.84;5053640;28;20457;-85
2022/05/31 03:32:40;;;;;;;8.97;1.87;;;;;;;18.81;nan;100840.50;5054098;28;20434;-84
2022/05/31 03:35:08;;;;;;;10.07;1.50;;;;;;;18.79;nan;100834.34;5053762;28;20824;-85
2022/05/31 03:37:35;;;;;;;8.70;1.73;;;;;;;18.75;nan;100841.47;5053699;28;20458;-83
2022/05/31 03:40:04;;;;;;;13.30;3.03;;;;;;;18.74;nan;100839.78;5070436;28;20454;-84
2022/05/31 03:42:36;;;;;;;6.50;1.40;;;;;;;18.74;nan;100837.84;5033840;28;20487;-84
2022/05/31 03:45:04;;;;;;;9.43;1.90;;;;;;;18.75;nan;100839.53;5050061;28;20478;-84
2022/05/31 03:47:33;;;;;;;5.73;1.97;;;;;;;18.77;nan;100833.75;5034120;28;20455;-84
2022/05/31 03:50:02;;;;;;;29.33;2.10;;;;;;;18.73;nan;100838.94;5034116;28;20477;-84
2022/05/31 03:52:32;;;;;;;7.13;1.47;;;;;;;18.73;nan;100844.47;5083329;28;20458;-84
2022/05/31 03:55:00;;;;;;;9.87;1.90;;;;;;;18.71;nan;100838.34;5053685;28;20450;-84
2022/05/31 03:57:28;;;;;;;5.13;1.53;;;;;;;18.72;nan;100836.41;5020436;28;20944;-83
2022/05/31 03:59:56;;;;;;;9.53;1.87;;;;;;;18.70;nan;100842.19;5053036;28;20450;-84
2022/05/31 04:02:23;;;;;;;9.40;2.00;;;;;;;18.69;nan;100853.50;5035515;28;20981;-83
2022/05/31 04:04:51;;;;;;;11.13;1.97;;;;;;;18.69;nan;100856.28;5053462;28;20527;-84
2022/05/31 04:07:19;;;;;;;10.63;2.30;;;;;;;18.70;nan;100857.97;5035109;28;20513;-84
2022/05/31 04:09:47;;;;;;;11.80;2.00;;;;;;;18.70;nan;100856.03;5033094;28;20451;-84
2022/05/31 04:12:16;;;;;;;7.43;1.87;;;;;;;18.71;nan;100857.72;5066098;28;20953;-84
2022/05/31 04:14:43;;;;;;;7.40;2.00;;;;;;;18.69;nan;100842.44;5033599;28;20452;-84
2022/05/31 04:17:11;;;;;;;8.23;1.57;;;;;;;18.71;nan;100851.34;5033287;28;20806;-84
2022/05/31 04:19:39;;;;;;;18.20;3.60;;;;;;;18.70;nan;100855.19;5066183;28;20947;-84
2022/05/31 04:22:07;;;;;;;15.63;1.87;;;;;;;18.68;nan;100841.59;5052757;28;20839;-85
2022/05/31 04:24:35;;;;;;;11.63;2.57;;;;;;;18.70;nan;100855.19;5085906;28;20944;-85
2022/05/31 04:27:03;;;;;;;11.43;2.23;;;;;;;18.74;nan;100853.63;5065458;28;20451;-83
2022/05/31 04:29:31;;;;;;;6.13;1.80;;;;;;;18.80;nan;100855.41;5036640;28;20451;-84
2022/05/31 04:31:59;;;;;;;8.70;2.10;;;;;;;18.86;nan;100848.88;5035871;28;20462;-84
2022/05/31 04:34:27;;;;;;;4.13;1.63;;;;;;;18.95;nan;100851.03;5052449;28;20458;-84
2022/05/31 04:36:54;;;;;;;7.13;1.93;;;;;;;19.00;nan;100850.28;5015599;28;20481;-84
2022/05/31 04:39:22;;;;;;;10.20;1.63;;;;;;;19.09;nan;100846.03;4975833;28;20503;-85
2022/05/31 04:41:50;;;;;;;7.60;1.83;;;;;;;19.12;nan;100841.91;4986380;28;20463;-84
2022/05/31 04:44:18;;;;;;;11.50;1.60;;;;;;;19.18;nan;100841.78;4992269;28;20472;-84
2022/05/31 04:46:48;;;;;;;9.33;1.97;;;;;;;19.25;nan;100842.44;5020039;28;20596;-83
2022/05/31 04:49:16;;;;;;;14.37;2.37;;;;;;;19.25;nan;100848.00;5027982;28;20488;-84
2022/05/31 04:51:44;;;;;;;12.53;1.70;;;;;;;19.33;nan;100855.91;5026521;28;20454;-85
2022/05/31 04:54:11;;;;;;;7.13;2.03;;;;;;;19.39;nan;100856.03;5012006;28;20453;-84
2022/05/31 04:56:39;;;;;;;6.27;1.90;;;;;;;19.42;nan;100861.06;5024656;28;20450;-83
2022/05/31 04:59:07;;;;;;;9.97;2.60;;;;;;;19.43;nan;100866.38;5049858;28;20951;-84
2022/05/31 05:01:35;;;;;;;7.10;2.07;;;;;;;19.45;nan;100853.06;5020037;28;20504;-84
2022/05/31 05:04:05;;;;;;;5.67;1.60;;;;;;;19.47;nan;100855.59;5018548;28;20482;-84
2022/05/31 05:06:32;;;;;;;8.73;2.10;;;;;;;19.48;nan;100858.13;5073336;28;20517;-84
2022/05/31 05:09:00;;;;;;;14.87;2.30;;;;;;;19.50;nan;100861.50;5032290;28;20459;-84
2022/05/31 05:11:30;;;;;;;6.97;1.53;;;;;;;19.53;nan;100865.72;5054532;28;20455;-83
2022/05/31 05:13:58;;;;;;;8.90;1.60;;;;;;;19.52;nan;100864.03;4991882;28;20948;-84
2022/05/31 05:16:26;;;;;;;7.87;1.73;;;;;;;19.54;nan;100865.47;4974398;28;20457;-84
2022/05/31 05:18:54;;;;;;;10.00;1.93;;;;;;;19.53;nan;100858.25;4992027;28;20441;-85
2022/05/31 05:21:22;;;;;;;16.40;1.93;;;;;;;19.53;nan;100862.94;4990226;28;20449;-84
2022/05/31 05:23:50;;;;;;;10.30;2.73;;;;;;;19.59;nan;100876.66;4975951;28;20542;-85
2022/05/31 05:26:18;;;;;;;14.97;1.67;;;;;;;19.58;nan;100872.22;4991544;28;20469;-84
2022/05/31 05:31:34;;;;;;;12.53;2.83;;;;;;;19.63;nan;100871.44;4999984;28;20455;-84
2022/05/31 05:34:03;;;;;;;8.90;2.00;;;;;;;19.64;nan;100879.50;5048284;28;20460;-84
2022/05/31 05:36:30;;;;;;;7.70;1.70;;;;;;;19.67;nan;100884.56;5067663;28;20523;-84
2022/05/31 05:38:58;;;;;;;6.83;2.10;;;;;;;19.69;nan;100881.53;5035773;28;20456;-84
2022/05/31 05:41:28;;;;;;;4.93;1.60;;;;;;;19.69;nan;100881.53;5050158;28;20454;-84
2022/05/31 05:43:56;;;;;;;10.93;2.33;;;;;;;19.72;nan;100874.66;5051439;28;20865;-84
2022/05/31 05:46:26;;;;;;;5.93;1.33;;;;;;;19.72;nan;100875.50;5049545;28;20467;-84
2022/05/31 05:48:55;;;;;;;6.80;1.73;;;;;;;19.75;nan;100883.31;5035448;28;20556;-84
2022/05/31 05:51:29;;;;;;;12.27;2.37;;;;;;;19.73;nan;100871.63;5025246;28;20443;-85
2022/05/31 05:53:57;;;;;;;9.83;2.60;;;;;;;19.81;nan;100879.53;5048323;28;20442;-86
2022/05/31 05:56:26;;;;;;;8.97;2.30;;;;;;;19.84;nan;100879.00;5031454;28;20452;-85
2022/05/31 05:58:54;;;;;;;4.03;1.80;;;;;;;19.77;nan;100864.50;5064439;28;20447;-85
2022/05/31 06:01:40;;;;;;;5.60;1.47;;;;;;;19.85;nan;100872.38;5046430;28;20449;-85
2022/05/31 06:04:32;;;;;;;7.10;2.00;;;;;;;19.92;nan;100880.53;5059230;28;20514;-85
2022/05/31 06:07:30;;;;;;;9.23;2.20;;;;;;;19.95;nan;100889.22;5067885;28;20938;-86
2022/05/31 06:10:01;;;;;;;12.73;2.57;;;;;;;20.00;nan;100880.13;5081618;28;20449;-85
2022/05/31 06:12:31;;;;;;;8.30;1.30;;;;;;;20.02;nan;100881.53;5033718;28;20517;-85
2022/05/31 06:15:02;;;;;;;12.40;1.87;;;;;;;20.01;nan;100890.94;5035469;28;21006;-86
2022/05/31 06:17:35;;;;;;;6.90;1.87;;;;;;;20.06;nan;100886.59;5049842;28;20817;-86
2022/05/31 06:20:05;;;;;;;7.93;1.60;;;;;;;20.09;nan;100892.47;5051233;28;20462;-85
2022/05/31 06:22:34;;;;;;;8.53;1.60;;;;;;;20.13;nan;100892.81;5016478;28;20513;-86
2022/05/31 06:25:02;;;;;;;11.47;1.90;;;;;;;20.12;nan;100886.44;5048046;28;20440;-86
2022/05/31 06:27:30;;;;;;;9.40;2.23;;;;;;;20.15;nan;100890.63;5043918;28;20828;-86
2022/05/31 06:29:58;;;;;;;4.67;1.60;;;;;;;20.15;nan;100885.06;5034017;28;20446;-86
2022/05/31 06:32:26;;;;;;;7.03;1.90;;;;;;;20.22;nan;100902.38;5018375;28;20462;-86
2022/05/31 06:34:55;;;;;;;3.67;1.90;;;;;;;20.24;nan;100897.41;5043279;28;20450;-86
2022/05/31 06:37:23;;;;;;;14.87;2.87;;;;;;;20.27;nan;100896.91;5031229;28;20451;-85
2022/05/31 06:39:51;;;;;;;12.30;2.80;;;;;;;20.31;nan;100903.66;5030561;28;20459;-86
2022/05/31 06:42:18;;;;;;;8.93;2.07;;;;;;;20.36;nan;100892.63;5031389;28;20452;-85
2022/05/31 06:44:47;;;;;;;6.80;1.50;;;;;;;20.38;nan;100901.56;5031001;28;20533;-86
2022/05/31 06:47:15;;;;;;;11.40;1.67;;;;;;;20.40;nan;100896.59;5031450;28;20447;-85
2022/05/31 06:49:43;;;;;;;8.30;1.53;;;;;;;20.44;nan;100906.09;5041154;28;20457;-85
2022/05/31 06:57:46;;;;;;;4.67;1.70;;;;;;;20.58;nan;100912.97;5048840;28;20456;-85
2022/05/31 07:00:16;;;;;;;8.40;1.40;;;;;;;20.60;nan;100910.75;5051068;28;20455;-86
2022/05/31 07:02:45;;;;;;;9.80;1.53;;;;;;;20.65;nan;100908.06;5081251;28;20450;-86
2022/05/31 07:05:13;;;;;;;10.80;1.20;;;;;;;20.71;nan;100913.69;5069915;28;20462;-86
2022/05/31 07:07:41;;;;;;;4.77;1.33;;;;;;;20.74;nan;100916.81;5051948;28;20458;-86
2022/05/31 07:10:09;;;;;;;9.40;1.37;;;;;;;20.78;nan;100917.13;5054715;28;20810;-85
2022/05/31 07:12:37;;;;;;;7.57;1.70;;;;;;;20.78;nan;100917.97;5041413;28;20459;-85
2022/05/31 07:15:05;;;;;;;7.70;2.00;;;;;;;20.84;nan;100928.03;5034117;28;20451;-86
2022/05/31 07:17:33;;;;;;;6.20;1.27;;;;;;;20.85;nan;100928.88;5066864;28;20459;-85
2022/05/31 07:20:01;;;;;;;11.03;1.77;;;;;;;20.85;nan;100934.44;5018202;28;20969;-86
2022/05/31 07:22:35;;;;;;;6.87;1.47;;;;;;;20.88;nan;100945.03;5065992;28;20448;-86
2022/05/31 07:25:03;;;;;;;19.53;2.13;;;;;;;20.87;nan;100940.59;5051141;28;20450;-85
2022/05/31 07:27:33;;;;;;;8.23;1.20;;;;;;;20.94;nan;100949.59;5021280;28;20453;-85
2022/05/31 07:30:02;;;;;;;10.70;1.17;;;;;;;20.98;nan;100956.28;5044616;28;20816;-85
2022/05/31 07:32:31;;;;;;;7.93;1.60;;;;;;;21.01;nan;100955.78;5068823;28;20816;-85
2022/05/31 07:35:20;;;;;;;7.30;2.10;;;;;;;21.04;nan;100966.38;5053177;28;20524;-85
2022/05/31 07:37:48;;;;;;;10.33;1.93;;;;;;;21.05;nan;100973.63;5070304;28;20523;-85
2022/05/31 07:40:16;;;;;;;4.60;1.40;;;;;;;21.04;nan;100980.28;5037825;28;20941;-86
2022/05/31 07:42:43;;;;;;;7.13;1.00;;;;;;;20.98;nan;100967.41;5068212;28;20454;-85
2022/05/31 07:45:11;;;;;;;10.17;1.47;;;;;;;21.03;nan;100976.66;5023892;28;20459;-85
2022/05/31 07:47:39;;;;;;;8.60;1.47;;;;;;;21.04;nan;100980.28;5037385;28;20450;-85
2022/05/31 07:50:10;;;;;;;6.13;1.43;;;;;;;21.05;nan;100990.31;5034673;28;20443;-86
2022/05/31 07:52:38;;;;;;;5.03;1.00;;;;;;;21.01;nan;100987.19;5033923;28;20879;-86
2022/05/31 07:55:07;;;;;;;5.07;1.20;;;;;;;20.97;nan;100982.44;5066562;28;20456;-86
2022/05/31 08:00:21;;;;;;;4.80;1.23;;;;;;;20.97;nan;100988.78;5061191;28;20447;-85
2022/05/31 08:02:49;;;;;;;5.00;1.30;;;;;;;20.96;nan;101002.97;5038648;28;20952;-85
2022/05/31 08:05:17;;;;;;;4.50;1.23;;;;;;;20.95;nan;100992.94;5035512;28;20450;-86
2022/05/31 08:07:46;;;;;;;5.67;1.63;;;;;;;21.01;nan;101000.25;5050067;28;20961;-87
2022/05/31 08:10:13;;;;;;;6.87;1.63;;;;;;;21.10;nan;101001.50;5018814;28;20454;-87
2022/05/31 08:12:41;;;;;;;7.63;1.00;;;;;;;21.18;nan;100997.41;5014490;28;20455;-86
2022/05/31 08:15:10;;;;;;;6.57;1.60;;;;;;;21.34;nan;101004.91;5018533;28;20451;-86
2022/05/31 08:17:39;;;;;;;5.40;1.27;;;;;;;21.48;nan;100999.78;5069394;28;20450;-86
2022/05/31 08:20:07;;;;;;;7.40;1.10;;;;;;;21.60;nan;101003.25;5020760;28;20858;-86
2022/05/31 08:22:35;;;;;;;5.87;1.37;;;;;;;21.66;nan;100997.50;5019490;28;20459;-86
2022/05/31 08:25:03;;;;;;;5.00;1.30;;;;;;;21.73;nan;100990.91;4994001;28;20864;-86
2022/05/31 08:27:34;;;;;;;6.70;1.60;;;;;;;21.79;nan;100996.25;4990600;28;20464;-86
2022/05/31 08:30:06;;;;;;;8.27;1.37;;;;;;;21.89;nan;101007.50;4993962;28;20456;-85
2022/05/31 08:32:34;;;;;;;3.93;1.10;;;;;;;21.93;nan;101003.09;5011238;28;20456;-85
2022/05/31 08:35:03;;;;;;;4.10;0.97;;;;;;;21.92;nan;101000.56;4978948;28;20863;-86
2022/05/31 08:37:36;;;;;;;5.63;1.33;;;;;;;21.91;nan;100987.75;4980793;28;20454;-86
2022/05/31 08:40:07;;;;;;;10.63;1.20;;;;;;;21.96;nan;100996.13;4994475;28;20452;-86
2022/05/31 08:43:17;;;;;;;8.20;1.70;;;;;;;22.17;nan;101000.81;5003646;28;20447;-87
2022/05/31 08:46:31;;;;;;;3.73;0.93;;;;;;;22.31;nan;100993.72;5059252;28;20443;-86
2022/05/31 08:49:16;;;;;;;3.97;1.07;;;;;;;22.45;nan;100987.69;5040678;28;20439;-86
2022/05/31 08:52:03;;;;;;;7.70;1.47;;;;;;;22.53;nan;100985.25;5036601;28;20998;-86
2022/05/31 08:57:46;;;;;;;6.73;1.20;;;;;;;22.48;nan;100987.16;5039861;28;20613;-86
2022/05/31 09:00:20;;;;;;;4.20;1.13;;;;;;;22.26;nan;100978.91;5032482;28;20848;-86
2022/05/31 09:03:39;;;;;;;7.23;0.87;;;;;;;22.18;nan;100990.53;5053217;28;20492;-88
2022/05/31 09:06:09;;;;;;;3.93;1.00;;;;;;;22.00;nan;100978.69;5039476;28;20482;-90
2022/05/31 09:08:49;;;;;;;5.73;1.30;;;;;;;22.17;nan;100986.06;5052543;28;20449;-88
2022/05/31 09:11:23;;;;;;;6.57;1.40;;;;;;;22.33;nan;100990.66;5038976;28;20451;-91
2022/05/31 09:14:00;;;;;;;5.00;0.80;;;;;;;22.41;nan;100998.53;5048581;28;20459;-90
2022/05/31 09:16:37;;;;;;;5.27;0.97;;;;;;;22.53;nan;100990.81;5067190;28;20454;-87
2022/05/31 09:19:07;;;;;;;3.90;1.10;;;;;;;22.59;nan;100989.75;5047334;28;20476;-87
2022/05/31 09:21:38;;;;;;;10.47;1.30;;;;;;;22.81;nan;100997.19;5039702;28;20473;-88
2022/05/31 09:24:14;;;;;;;7.93;1.30;;;;;;;23.01;nan;100998.16;5032208;28;20548;-88
2022/05/31 09:27:06;;;;;;;5.53;1.00;;;;;;;23.26;nan;100991.88;5032212;28;20443;-89
2022/05/31 09:29:43;;;;;;;8.93;0.90;;;;;;;23.52;nan;101003.16;5031388;28;20870;-87
2022/05/31 09:32:48;;;;;;;6.87;0.97;;;;;;;23.76;nan;101002.41;5048755;28;20453;-88
2022/05/31 09:35:25;;;;;;;3.60;1.00;;;;;;;23.98;nan;100999.38;5054634;28;20446;-87
2022/05/31 09:38:02;;;;;;;6.13;1.30;;;;;;;24.10;nan;100997.13;5032375;28;20447;-88
2022/05/31 09:40:38;;;;;;;6.30;1.20;;;;;;;24.23;nan;101004.16;5046430;28;20453;-88
2022/05/31 09:43:30;;;;;;;6.90;1.63;;;;;;;24.35;nan;100995.53;5014870;28;20461;-89
2022/05/31 09:46:09;;;;;;;4.93;1.00;;;;;;;24.38;nan;101000.56;5060807;28;20820;-86
2022/05/31 09:48:47;;;;;;;4.83;0.97;;;;;;;24.45;nan;101003.88;5068550;28;20458;-87
2022/05/31 09:51:29;;;;;;;6.60;0.90;;;;;;;24.54;nan;101004.19;5068400;28;20549;-87
2022/05/31 09:59:29;;;;;;;21.80;2.40;;;;;;;25.06;nan;101001.03;5065866;28;20523;-87
2022/05/31 10:02:22;;;;;;;6.03;0.90;;;;;;;25.14;nan;101003.25;5051675;28;20971;-87
2022/05/31 10:05:06;;;;;;;11.90;1.07;;;;;;;25.13;nan;100996.81;5058197;28;20490;-87
2022/05/31 10:07:36;;;;;;;4.60;1.00;;;;;;;25.27;nan;101008.25;5065920;28;20455;-87
2022/05/31 10:10:10;;;;;;;10.47;1.07;;;;;;;25.35;nan;101009.63;5067885;28;20442;-87
2022/05/31 10:12:50;;;;;;;5.70;1.30;;;;;;;25.40;nan;101013.22;5051364;28;20948;-87
2022/05/31 10:15:48;;;;;;;8.23;1.30;;;;;;;25.37;nan;101008.22;5067489;28;20454;-87
2022/05/31 10:18:28;;;;;;;8.60;0.93;;;;;;;25.37;nan;101008.22;5051399;28;20450;-87
2022/05/31 10:20:57;;;;;;;12.77;1.93;;;;;;;25.36;nan;101000.94;5067883;28;20940;-87
2022/05/31 10:23:34;;;;;;;5.00;1.30;;;;;;;25.50;nan;101006.75;5069484;28;20438;-87
2022/05/31 10:26:02;;;;;;;5.90;0.70;;;;;;;25.69;nan;101012.56;5071146;28;20450;-87
2022/05/31 10:28:36;;;;;;;4.27;1.00;;;;;;;25.80;nan;101008.56;5055417;28;20953;-87
2022/05/31 10:31:33;;;;;;;6.60;1.03;;;;;;;25.88;nan;101007.97;5055459;28;20944;-86
2022/05/31 10:34:03;;;;;;;4.23;1.17;;;;;;;26.03;nan;101012.66;5053110;28;20936;-87
2022/05/31 10:36:33;;;;;;;4.07;0.93;;;;;;;26.11;nan;101012.88;5055300;28;20512;-87
2022/05/31 10:39:11;;;;;;;7.03;1.30;;;;;;;26.13;nan;100995.78;5071440;28;20446;-87
2022/05/31 10:41:39;;;;;;;10.73;1.40;;;;;;;26.24;nan;100999.31;5071242;28;20450;-87
2022/05/31 10:44:34;;;;;;;3.23;0.73;;;;;;;26.37;nan;101005.13;5069546;28;20486;-87
2022/05/31 10:47:14;;;;;;;4.90;0.60;;;;;;;26.40;nan;101007.34;5038974;28;20454;-87
2022/05/31 10:49:43;;;;;;;4.47;0.70;;;;;;;26.47;nan;101007.03;4994882;28;20459;-87
2022/05/31 10:52:33;;;;;;;5.07;0.80;;;;;;;26.55;nan;101011.16;4962845;28;20449;-88
2022/05/31 10:55:07;;;;;;;5.50;1.10;;;;;;;26.59;nan;101010.25;4996481;28;20453;-88
2022/05/31 10:57:48;;;;;;;8.00;1.10;;;;;;;26.63;nan;101005.75;4994616;28;20840;-87
2022/05/31 11:00:47;;;;;;;6.60;1.20;;;;;;;26.70;nan;101014.66;4995774;28;20507;-87
2022/05/31 11:03:39;;;;;;;5.23;0.90;;;;;;;26.78;nan;101019.63;4978630;28;20449;-87
2022/05/31 11:06:09;;;;;;;6.20;1.43;;;;;;;26.86;nan;101012.53;5010793;28;20955;-87
2022/05/31 11:12:02;;;;;;;6.77;1.30;;;;;;;27.04;nan;101019.41;5083208;28;20484;-87
2022/05/31 11:14:44;;;;;;;6.37;1.23;;;;;;;27.12;nan;101015.97;5070238;28;20446;-87
2022/05/31 11:17:35;;;;;;;3.30;0.93;;;;;;;27.19;nan;101022.03;5054477;28;21009;-87
2022/05/31 11:20:14;;;;;;;12.17;1.10;;;;;;;27.34;nan;101030.28;5085839;28;20933;-87
2022/05/31 11:22:56;;;;;;;4.00;0.93;;;;;;;27.45;nan;101017.78;5055707;28;20525;-87
2022/05/31 11:25:54;;;;;;;6.17;1.60;;;;;;;27.53;nan;101028.34;5085798;28;20490;-88
2022/05/31 11:29:07;;;;;;;7.63;1.13;;;;;;;27.65;nan;101018.69;5077174;28;20474;-87
2022/05/31 11:31:55;;;;;;;6.63;1.07;;;;;;;27.72;nan;101028.41;5087565;28;20455;-88
2022/05/31 11:34:44;;;;;;;3.33;0.60;;;;;;;27.80;nan;101024.94;5053905;28;20446;-87
2022/05/31 11:37:15;;;;;;;4.80;0.97;;;;;;;27.92;nan;101024.47;5054062;28;20456;-88
2022/05/31 11:39:53;;;;;;;3.53;0.67;;;;;;;27.98;nan;101017.66;5055102;28;20504;-88
2022/05/31 11:42:54;;;;;;;3.53;1.10;;;;;;;28.05;nan;101029.38;5052317;28;20454;-87
2022/05/31 11:45:22;;;;;;;6.87;1.00;;;;;;;28.10;nan;101032.09;5055007;28;20492;-88
2022/05/31 11:48:05;;;;;;;5.40;1.03;;;;;;;28.09;nan;101024.81;5053801;28;20446;-88
2022/05/31 11:50:47;;;;;;;4.00;0.90;;;;;;;28.22;nan;101028.03;5038368;28;20465;-87
2022/05/31 11:53:41;;;;;;;5.33;1.00;;;;;;;28.29;nan;101034.09;5053968;28;20450;-87
2022/05/31 11:56:13;;;;;;;3.43;0.70;;;;;;;28.38;nan;101033.09;5023321;28;20438;-87
2022/05/31 11:58:55;;;;;;;4.70;0.93;;;;;;;28.52;nan;101030.31;5070807;28;20937;-87
2022/05/31 12:01:27;;;;;;;10.77;1.00;;;;;;;28.50;nan;101024.16;5037215;28;20495;-88
2022/05/31 12:04:04;;;;;;;3.47;0.97;;;;;;;28.56;nan;101028.56;5037209;28;20453;-87
2022/05/31 12:06:32;;;;;;;7.13;0.73;;;;;;;28.64;nan;101027.06;4974011;28;20458;-87
2022/05/31 12:09:35;;;;;;;4.20;0.87;;;;;;;28.74;nan;101032.47;4973916;28;20504;-88
2022/05/31 12:12:12;;;;;;;5.90;1.30;;;;;;;28.75;nan;101028.53;4957965;28;20453;-87
2022/05/31 12:14:51;;;;;;;3.30;0.80;;;;;;;28.83;nan;101020.25;4972808;28;20473;-87
2022/05/31 12:17:23;;;;;;;5.30;1.30;;;;;;;28.89;nan;101020.97;4973540;28;20454;-87
2022/05/31 12:19:57;;;;;;;3.40;0.73;;;;;;;28.92;nan;101019.53;4957448;28;20517;-88
2022/05/31 12:22:29;;;;;;;10.60;1.57;;;;;;;28.99;nan;101020.81;4973346;28;20458;-88
2022/05/31 12:25:40;;;;;;;3.67;1.13;;;;;;;29.00;nan;101016.00;5012964;28;20482;-87
2022/05/31 12:28:28;;;;;;;11.63;1.00;;;;;;;29.14;nan;101012.06;5052606;28;20805;-87
2022/05/31 12:31:09;;;;;;;6.20;0.70;;;;;;;29.22;nan;101021.78;5082531;28;20958;-88